Latest Weather Observations for Scottsdale

IDT60801

Issued at 3:32 pm EST Wednesday 27 July 2016 (issued every 30 minutes, with the page automatically refreshed every 10 minutes)

About weather observations | Map of weather stations | Latest weather observations for TAS | Other Formats
Station Details ID: 091219 Name: SCOTTSDALE (WEST MINSTONE ROAD) Lat: -41.17 Lon: 147.49 Height: 197.5 m
Data from the previous 72 hours. | See also: Recent months at Scottsdale
Date/Time
EST
Temp
°C
App
Temp
°C
Dew
Point
°C
Rel
Hum
%
Delta-T
°C
Wind Press
QNH
hPa
Press
MSL
hPa
Rain since
9am
mm
Dir  Spd
km/h
Gust
km/h
Spd
kts
Gust
kts
27/03:30pm 8.6 1.4 0.8 58 3.2 W 28 46 15 25 1006.3 - 0.0
27/03:00pm 8.2 2.6 0.9 60 3.0 W 20 41 11 22 1006.7 1007.2 0.0
27/02:30pm 8.5 1.9 -0.6 53 3.6 W 24 41 13 22 1006.6 - 0.0
27/02:00pm 9.0 2.9 0.1 53 3.6 W 22 33 12 18 1006.2 - 0.0
27/01:30pm 8.7 3.1 -0.3 53 3.6 WNW 19 30 10 16 1006.1 - 0.0
27/01:00pm 8.1 3.2 -0.5 54 3.4 WNW 15 26 8 14 1006.3 - 0.0
27/12:30pm 8.4 2.7 -0.4 54 3.5 W 19 30 10 16 1006.1 - 0.0
27/12:00pm 8.4 3.6 0.2 56 3.3 WNW 15 20 8 11 1006.3 1006.8 0.0
27/11:30am 8.2 2.5 -0.7 53 3.5 W 19 28 10 15 1006.4 - 0.0
27/11:00am 8.5 4.5 -1.9 48 4.0 WNW 9 20 5 11 1006.0 - 0.0
27/10:30am 7.5 2.4 -2.3 50 3.7 WSW 15 20 8 11 1005.8 - 0.0
27/10:00am 7.1 1.2 -1.9 53 3.4 WSW 19 32 10 17 1005.1 - 0.0
27/09:30am 6.6 1.1 -1.9 54 3.2 SW 17 22 9 12 1004.9 - 0.0
27/09:00am 6.1 1.7 0.3 66 2.3 WSW 13 17 7 9 1004.1 1004.5 32.8
27/08:30am 5.7 1.0 0.7 70 2.0 SW 15 19 8 10 1003.3 - 32.8
27/08:00am 5.6 1.9 2.5 80 1.3 SSW 11 15 6 8 1002.4 - 32.8
27/07:30am 5.3 1.5 3.7 89 0.7 SW 13 19 7 10 1001.3 - 32.8
27/07:00am 6.3 3.7 4.2 86 0.9 W 7 15 4 8 1000.6 - 32.8
27/06:30am 6.5 4.1 5.2 91 0.6 E 7 11 4 6 1000.2 - 32.8
27/06:00am 6.9 3.1 5.8 93 0.5 WNW 15 22 8 12 999.1 999.5 32.8
27/05:30am 6.7 2.9 6.0 95 0.3 WNW 15 20 8 11 998.7 - 32.8
27/05:00am 6.4 2.6 5.7 95 0.3 W 15 20 8 11 998.2 - 32.8
27/04:30am 6.1 3.3 5.2 94 0.4 W 9 15 5 8 998.2 - 32.8
27/04:00am 5.8 1.8 4.9 94 0.4 WNW 15 24 8 13 998.0 - 32.8
27/03:30am 6.0 1.1 5.3 95 0.3 WNW 20 37 11 20 998.3 - 32.8
27/03:00am 5.8 2.3 5.4 97 0.2 W 13 20 7 11 998.5 998.9 29.0
27/02:30am 5.6 1.2 4.9 95 0.3 W 17 30 9 16 998.5 - 27.2
27/02:00am 5.4 0.4 4.5 94 0.4 W 20 37 11 20 998.9 - 24.6
27/01:30am 7.3 2.0 6.9 97 0.2 NW 24 39 13 21 998.0 - 19.2
27/01:00am 6.1 1.2 5.2 94 0.4 NNW 20 35 11 19 998.6 - 18.0
27/12:30am 5.9 2.7 5.0 94 0.4 W 11 17 6 9 999.1 - 13.0
27/12:00am 5.9 2.3 5.0 94 0.4 WNW 13 19 7 10 999.4 999.8 11.0
 
Date/Time
EST
Temp
°C
App
Temp
°C
Dew
Point
°C
Rel
Hum
%
Delta-T
°C
Wind Press
QNH
hPa
Press
MSL
hPa
Rain since
9am
mm
Dir  Spd
km/h
Gust
km/h
Spd
kts
Gust
kts
26/11:30pm 6.1 1.7 5.0 93 0.5 W 17 30 9 16 999.9 - 9.6
26/11:05pm 6.3 -0.1 5.2 93 0.5 WNW 28 54 15 29 1000.3 - 7.8
26/11:00pm 6.3 0.7 5.2 93 0.5 WNW 24 54 13 29 1000.4 - 7.4
26/10:30pm 5.6 2.4 4.9 95 0.3 NW 11 22 6 12 1000.8 - 4.8
26/10:00pm 5.5 2.2 4.6 94 0.4 W 11 15 6 8 1001.1 - 3.8
26/09:30pm 5.7 1.2 4.3 91 0.6 W 17 24 9 13 1001.5 - 2.4
26/09:00pm 5.9 2.6 4.3 89 0.7 WNW 11 19 6 10 1001.7 1002.2 1.4
26/08:30pm 6.7 1.7 3.4 79 1.4 WNW 19 33 10 18 1001.7 - 0.2
26/08:00pm 6.7 1.5 2.7 75 1.7 WNW 19 32 10 17 1001.9 - 0.2
26/07:30pm 6.7 1.4 2.1 72 1.9 NW 19 26 10 14 1002.0 - 0.2
26/07:00pm 6.8 1.5 2.0 71 2.0 WNW 19 33 10 18 1002.3 - 0.2
26/06:30pm 6.7 1.3 2.7 75 1.7 WNW 20 33 11 18 1002.0 - 0.2
26/06:00pm 6.4 1.1 3.1 79 1.4 WNW 20 32 11 17 1001.9 1002.4 0.2
26/05:30pm 6.9 1.4 2.1 71 2.0 WNW 20 30 11 16 1001.6 - 0.2
26/05:00pm 7.0 1.4 1.4 67 2.3 WNW 20 30 11 16 1001.7 - 0.2
26/04:30pm 7.2 1.6 1.1 65 2.5 WNW 20 32 11 17 1001.8 - 0.2
26/04:00pm 7.4 1.0 1.0 64 2.6 WNW 24 33 13 18 1001.8 - 0.2
26/03:30pm 8.0 1.2 0.9 61 2.9 WNW 26 44 14 24 1001.9 - 0.2
26/03:16pm 8.1 0.9 0.8 60 3.0 WNW 28 48 15 26 1002.0 - 0.2
26/03:00pm 8.3 2.8 1.6 62 2.8 WNW 20 30 11 16 1002.3 1002.7 0.2
26/02:30pm 8.0 1.7 1.5 63 2.7 WNW 24 35 13 19 1002.3 - 0.2
26/02:13pm 7.2 0.2 2.2 70 2.1 W 28 52 15 28 1002.4 - 0.2
26/02:00pm 7.9 2.3 1.4 63 2.7 W 20 33 11 18 1002.2 - 0.0
26/01:37pm 8.6 1.4 0.5 57 3.3 WNW 28 46 15 25 1002.2 - 0.0
26/01:30pm 8.5 1.7 1.0 59 3.1 WNW 26 44 14 24 1002.3 - 0.0
26/01:00pm 8.3 0.3 0.1 56 3.3 W 32 54 17 29 1002.4 - 0.0
26/12:51pm 8.2 0.8 -1.0 52 3.6 W 28 54 15 29 1002.4 - 0.0
26/12:30pm 7.7 0.9 0.5 60 2.9 W 26 43 14 23 1002.7 - 0.0
26/12:00pm 7.8 0.2 0.4 59 3.0 W 30 52 16 28 1002.6 1003.0 0.0
26/11:40am 7.9 0.5 -0.4 56 3.3 WNW 28 46 15 25 1002.7 - 0.0
26/11:30am 7.9 1.3 -0.4 56 3.3 W 24 43 13 23 1002.8 - 0.0
26/11:00am 7.2 0.1 -1.1 55 3.2 WNW 26 37 14 20 1002.7 - 0.0
26/10:30am 6.8 0.2 -0.3 60 2.8 W 24 41 13 22 1002.6 - 0.0
26/10:00am 6.6 2.3 0.9 67 2.3 WNW 13 20 7 11 1002.4 - 0.0
26/09:30am 5.6 0.8 0.0 67 2.2 W 15 24 8 13 1002.2 - 0.0
26/09:00am 5.1 0.3 0.2 70 1.9 WNW 15 30 8 16 1002.3 1002.7 11.6
26/08:30am 4.4 -0.4 0.0 73 1.7 W 15 28 8 15 1001.7 - 11.6
26/08:00am 3.8 -1.4 0.2 77 1.4 W 17 24 9 13 1001.2 - 11.6
26/07:30am 3.6 -1.6 0.2 78 1.3 W 17 28 9 15 1000.7 - 11.6
26/07:00am 3.6 -1.6 0.2 78 1.3 W 17 28 9 15 1000.0 - 11.6
26/06:30am 3.7 -1.5 0.3 78 1.3 W 17 24 9 13 999.4 - 11.6
26/06:00am 4.1 -1.5 0.2 76 1.5 W 19 28 10 15 998.6 999.0 11.6
26/05:30am 4.5 -1.3 0.1 73 1.7 W 20 33 11 18 998.1 - 11.6
26/05:00am 4.8 -1.0 -0.1 70 1.9 W 20 33 11 18 997.4 - 11.6
26/04:30am 5.1 -1.0 0.3 71 1.9 W 22 37 12 20 997.1 - 11.6
26/04:00am 4.9 -0.8 0.3 72 1.8 W 20 35 11 19 996.5 - 11.6
26/03:30am 4.9 0.2 0.6 74 1.7 W 15 22 8 12 996.5 - 11.6
26/03:00am 5.0 -0.8 0.1 70 1.9 W 20 32 11 17 996.0 996.4 11.6
26/02:30am 4.8 -0.7 0.5 74 1.7 W 19 30 10 16 996.0 - 11.6
26/02:00am 4.9 -1.2 0.3 72 1.8 W 22 33 12 18 995.6 - 11.6
26/01:30am 5.3 -2.0 0.2 69 2.0 W 28 43 15 23 995.1 - 11.6
26/01:09am 5.6 -1.6 0.6 70 2.0 W 28 46 15 25 994.6 - 11.6
26/01:00am 5.5 -0.9 1.0 73 1.8 W 24 35 13 19 994.8 - 11.6
26/12:30am 5.0 -0.4 1.5 78 1.4 W 19 26 10 14 994.5 - 11.6
26/12:00am 5.3 -0.6 1.6 77 1.5 W 22 37 12 20 994.6 995.0 11.6
 
Date/Time
EST
Temp
°C
App
Temp
°C
Dew
Point
°C
Rel
Hum
%
Delta-T
°C
Wind Press
QNH
hPa
Press
MSL
hPa
Rain since
9am
mm
Dir  Spd
km/h
Gust
km/h
Spd
kts
Gust
kts
25/11:30pm 5.7 -2.7 1.5 74 1.7 W 35 59 19 32 993.8 - 11.6
25/11:00pm 6.6 -0.4 2.0 72 1.9 WNW 28 54 15 29 993.9 - 11.6
25/10:59pm 6.7 -0.3 1.9 71 2.0 WNW 28 54 15 29 993.9 - 11.6
25/10:30pm 6.6 0.0 2.3 74 1.8 WNW 26 39 14 21 993.6 - 11.6
25/10:00pm 6.7 -0.6 2.7 75 1.7 W 30 54 16 29 993.1 - 11.6
25/09:33pm 7.1 0.0 3.4 77 1.6 W 30 48 16 26 992.7 - 11.6
25/09:30pm 7.1 0.4 3.7 79 1.5 WNW 28 44 15 24 992.8 - 11.6
25/09:17pm 7.2 0.7 4.7 84 1.1 WNW 28 46 15 25 992.6 - 11.6
25/09:00pm 7.1 1.1 5.1 87 0.9 WNW 26 44 14 24 992.3 992.6 11.6
25/08:30pm 7.3 0.6 5.8 90 0.7 NW 30 48 16 26 992.1 - 11.6
25/08:10pm 7.6 -1.0 6.3 91 0.6 NW 41 74 22 40 992.3 - 11.2
25/08:00pm 7.6 -1.4 6.5 93 0.5 NNW 43 76 23 41 992.1 - 10.8
25/07:30pm 7.9 -2.0 6.8 93 0.5 NNW 48 89 26 48 993.0 - 8.6
25/07:27pm 8.1 -0.4 6.8 91 0.6 N 41 89 22 48 992.9 - 8.0
25/07:00pm 8.4 1.0 6.7 89 0.8 N 35 59 19 32 993.7 - 5.8
25/06:49pm 8.5 1.6 6.4 87 1.0 NNW 32 50 17 27 994.0 - 5.2
25/06:30pm 9.2 3.2 5.5 78 1.7 N 26 35 14 19 994.5 - 4.6
25/06:00pm 8.6 3.2 6.3 85 1.1 NNW 24 35 13 19 995.5 995.9 4.6
25/05:30pm 8.4 4.3 6.0 85 1.1 NNW 17 28 9 15 995.6 - 4.0
25/05:00pm 8.5 4.7 5.7 82 1.3 NNW 15 20 8 11 996.1 - 4.0
25/04:30pm 8.8 4.9 5.3 79 1.6 NW 15 24 8 13 996.6 - 4.0
25/04:00pm 9.2 4.4 4.8 74 2.0 WNW 19 26 10 14 997.0 - 4.0
25/03:30pm 9.2 3.4 4.6 73 2.1 WNW 24 37 13 20 997.4 - 4.0
25/03:00pm 9.6 2.7 4.8 72 2.2 NW 30 52 16 28 997.6 998.0 4.0
25/02:58pm 9.6 3.2 5.3 74 2.0 NW 28 52 15 28 997.5 - 4.0
25/02:30pm 10.2 5.5 6.2 76 1.9 WNW 20 33 11 18 997.6 - 4.0
25/02:00pm 9.7 5.5 5.9 77 1.8 WNW 17 24 9 13 997.8 - 4.0
25/01:30pm 10.4 5.6 5.7 72 2.2 WNW 20 33 11 18 998.3 - 4.0
25/01:00pm 9.9 5.1 5.8 75 1.9 WNW 20 30 11 16 998.5 - 4.0
25/12:30pm 9.8 5.8 6.7 81 1.5 W 17 24 9 13 998.8 - 4.0
25/12:00pm 9.9 5.9 6.8 81 1.5 WNW 17 24 9 13 999.1 999.5 4.0
25/11:30am 10.0 6.5 7.1 82 1.4 WNW 15 26 8 14 999.2 - 4.0
25/11:00am 9.3 7.4 7.4 88 0.9 SW 7 11 4 6 999.4 - 4.0
25/10:30am 8.4 6.1 7.6 95 0.4 SSW 9 11 5 6 999.3 - 4.0
25/10:00am 7.1 4.2 6.7 97 0.2 S 11 17 6 9 999.2 - 4.0
25/09:30am 6.7 2.3 6.5 99 0.1 SE 19 20 10 11 998.9 - 3.8
25/09:00am 6.6 4.1 6.4 99 0.1 SSE 9 17 5 9 999.6 1000.0 19.0
25/08:30am 6.8 4.6 6.4 97 0.2 SE 7 15 4 8 1000.0 - 16.4
25/08:00am 6.5 3.9 6.1 97 0.2 ESE 9 11 5 6 1000.2 - 15.6
25/07:30am 6.1 3.5 5.9 99 0.1 ESE 9 13 5 7 1000.2 - 15.4
25/07:00am 5.9 3.2 5.5 97 0.2 ESE 9 11 5 6 1000.2 - 14.6
25/06:30am 5.6 2.5 5.4 99 0.1 SE 11 11 6 6 1000.1 - 14.6
25/06:00am 5.5 2.7 5.3 99 0.1 SE 9 13 5 7 1000.2 1000.6 14.2
25/05:30am 5.5 3.1 5.3 99 0.1 SSE 7 9 4 5 1000.4 - 14.0
25/05:00am 5.6 2.0 5.1 97 0.2 SE 13 15 7 8 1000.2 - 13.0
25/04:30am 5.3 2.4 4.8 97 0.2 SE 9 11 5 6 1000.3 - 12.4
25/04:00am 5.1 1.4 4.6 97 0.2 ESE 13 17 7 9 1000.4 - 11.6
25/03:30am 5.3 2.4 4.8 97 0.2 S 9 11 5 6 1000.6 - 11.2
25/03:00am 5.4 1.8 4.9 97 0.2 E 13 15 7 8 1000.9 1001.4 11.0
25/02:30am 5.4 2.9 4.9 97 0.2 E 7 9 4 5 1001.4 - 11.0
25/02:00am 5.1 1.0 4.6 97 0.2 SE 15 17 8 9 1001.3 - 10.0
25/01:30am 5.0 1.7 4.5 97 0.2 SE 11 15 6 8 1001.6 - 9.8
25/01:00am 4.8 2.4 4.3 97 0.2 W 6 7 3 4 1001.8 - 8.0
25/12:30am 4.7 1.3 4.2 97 0.2 SSE 11 13 6 7 1001.6 - 5.8
25/12:00am 4.9 2.0 4.4 97 0.2 ESE 9 13 5 7 1002.2 1002.6 5.2
 
Date/Time
EST
Temp
°C
App
Temp
°C
Dew
Point
°C
Rel
Hum
%
Delta-T
°C
Wind Press
QNH
hPa
Press
MSL
hPa
Rain since
9am
mm
Dir  Spd
km/h
Gust
km/h
Spd
kts
Gust
kts
24/11:30pm 4.3 0.9 3.8 97 0.2 SE 11 15 6 8 1002.4 - 4.0
24/11:00pm 4.5 1.5 4.3 99 0.1 SE 9 11 5 6 1002.5 - 4.0
24/10:30pm 4.3 1.2 3.8 97 0.2 SSE 9 11 5 6 1002.6 - 3.8
24/10:00pm 4.0 0.9 3.5 97 0.2 ESE 9 11 5 6 1002.7 - 3.8
24/09:30pm 4.5 1.2 4.3 99 0.1 E 11 13 6 7 1003.2 - 3.8
24/09:00pm 4.1 1.0 3.6 97 0.2 ESE 9 13 5 7 1003.2 1003.6 3.8
24/08:30pm 5.0 2.5 4.5 97 0.2 ENE 7 11 4 6 1003.6 - 3.8
24/08:00pm 5.1 2.5 4.4 95 0.3 ENE 7 9 4 5 1003.8 - 3.8
24/07:30pm 5.1 2.5 4.2 94 0.4 ESE 7 9 4 5 1003.8 - 3.8
24/07:00pm 5.4 3.7 4.0 91 0.6 NW 2 7 1 4 1003.9 - 3.6
24/06:30pm 5.3 3.2 3.9 91 0.6 W 4 7 2 4 1003.9 - 3.6
24/06:00pm 5.7 2.1 5.0 95 0.3 WNW 13 30 7 16 1004.1 1004.5 2.6
24/05:30pm 5.8 3.4 5.1 95 0.3 NE 7 9 4 5 1003.8 - 1.2
24/05:00pm 6.0 4.9 5.3 95 0.3 CALM 0 0 0 0 1003.7 - 1.2
24/04:30pm 6.2 2.7 5.5 95 0.3 NNW 13 19 7 10 1003.8 - 1.2
24/04:00pm 6.4 3.1 4.8 89 0.7 N 11 15 6 8 1003.9 - 1.2

Other Formats:

Comma delimited format used in spreadsheet applications
http://www.bom.gov.au/fwo/IDT60801/IDT60801.94972.axf

JavaScript Object Notation format (JSON) in row-major order
http://www.bom.gov.au/fwo/IDT60801/IDT60801.94972.json